createdAt,value
2022-08-11T00:02:07.000Z,10.40
2022-08-11T00:07:19.143Z,11.60
2022-08-11T00:12:22.391Z,10.40
2022-08-11T00:17:30.950Z,12.40
2022-08-11T00:22:35.173Z,11.80
2022-08-11T00:27:40.890Z,11.60
2022-08-11T00:32:53.282Z,11.20
2022-08-11T00:37:58.006Z,11.40
2022-08-11T00:43:20.212Z,12.20
2022-08-11T00:48:30.741Z,11.00
2022-08-11T00:53:47.697Z,11.60
2022-08-11T00:59:34.136Z,11.40
2022-08-11T01:05:05.669Z,11.00
2022-08-11T01:10:27.353Z,11.60
2022-08-11T01:16:12.697Z,12.20
2022-08-11T01:22:06.541Z,10.40
2022-08-11T01:27:28.461Z,12.80
2022-08-11T01:33:10.160Z,12.60
2022-08-11T01:38:51.193Z,11.00
2022-08-11T01:44:31.785Z,12.80
2022-08-11T01:50:08.328Z,11.00
2022-08-11T01:55:24.029Z,12.60
2022-08-11T02:00:32.457Z,12.80
2022-08-11T02:05:52.148Z,11.80
2022-08-11T02:11:25.533Z,11.00
2022-08-11T02:16:40.993Z,10.80
2022-08-11T02:22:08.502Z,11.80
2022-08-11T02:27:19.817Z,11.60
2022-08-11T02:32:48.439Z,10.20
2022-08-11T02:38:09.822Z,12.80
2022-08-11T02:43:30.211Z,11.20
2022-08-11T02:49:12.258Z,11.60
2022-08-11T02:54:24.880Z,12.40
2022-08-11T02:59:51.469Z,12.40
2022-08-11T03:05:03.931Z,13.20
2022-08-11T03:10:14.623Z,13.20
2022-08-11T03:15:44.606Z,12.80
2022-08-11T03:20:58.715Z,13.00
2022-08-11T03:26:06.852Z,12.60
2022-08-11T03:31:26.181Z,13.00
2022-08-11T03:37:16.680Z,13.60
2022-08-11T03:42:33.444Z,14.80
2022-08-11T03:48:10.857Z,14.20
2022-08-11T03:53:28.033Z,15.60
2022-08-11T03:59:07.574Z,13.60
2022-08-11T04:04:39.392Z,14.80
2022-08-11T04:10:33.860Z,16.00
2022-08-11T04:16:12.483Z,14.00
2022-08-11T04:21:37.808Z,15.00
2022-08-11T04:27:22.701Z,17.00
2022-08-11T04:32:48.009Z,13.00
2022-08-11T04:38:44.096Z,13.00
2022-08-11T04:44:25.375Z,15.20
2022-08-11T04:50:23.450Z,14.80
2022-08-11T04:56:20.977Z,14.80
2022-08-11T05:01:42.743Z,17.00
2022-08-11T05:07:13.042Z,16.40
2022-08-11T05:12:30.960Z,17.80
2022-08-11T05:17:56.346Z,17.20
2022-08-11T05:23:22.644Z,16.00
2022-08-11T05:28:51.863Z,18.20
2022-08-11T05:34:20.500Z,16.60
2022-08-11T05:39:44.210Z,16.20
2022-08-11T05:45:15.401Z,15.40
2022-08-11T05:50:37.349Z,16.00
2022-08-11T05:56:03.243Z,13.20
2022-08-11T06:01:08.870Z,13.40
2022-08-11T06:06:12.116Z,16.00
2022-08-11T06:11:18.536Z,13.40
2022-08-11T06:16:44.372Z,12.40
2022-08-11T06:21:48.843Z,14.00
2022-08-11T06:32:18.765Z,12.00
2022-08-11T06:37:36.225Z,12.60
2022-08-11T06:42:53.120Z,13.00
2022-08-11T06:48:01.058Z,11.60
2022-08-11T06:53:07.161Z,11.00
2022-08-11T06:58:33.348Z,11.80
2022-08-11T07:03:43.953Z,11.80
2022-08-11T07:09:27.102Z,10.40
2022-08-11T07:14:50.671Z,9.80
2022-08-11T07:20:17.374Z,10.00
2022-08-11T07:25:40.128Z,9.00
2022-08-11T07:30:44.824Z,8.80
2022-08-11T07:35:55.537Z,9.20
2022-08-11T07:41:00.065Z,9.40
2022-08-11T07:46:22.936Z,7.60
2022-08-11T07:51:44.290Z,9.00
2022-08-11T07:56:55.522Z,8.50
2022-08-11T08:02:31.425Z,9.00
2022-08-11T08:07:56.584Z,8.67
2022-08-11T08:13:17.813Z,7.40
2022-08-11T08:18:26.329Z,9.00
2022-08-11T08:23:34.287Z,8.20
2022-08-11T08:28:37.918Z,8.50
2022-08-11T08:33:42.998Z,9.00
2022-08-11T08:38:51.075Z,7.00
2022-08-11T08:44:05.913Z,7.00
2022-08-11T08:49:26.855Z,7.00
2022-08-11T08:54:37.440Z,8.25
2022-08-11T08:59:48.831Z,7.00
2022-08-11T09:04:53.414Z,7.00
2022-08-11T09:10:00.161Z,7.60
2022-08-11T09:15:08.021Z,7.00
2022-08-11T09:20:14.046Z,7.25
2022-08-11T09:25:37.534Z,7.00
2022-08-11T09:30:43.759Z,7.00
2022-08-11T09:35:48.471Z,7.00
2022-08-11T09:40:56.275Z,6.00
2022-08-11T09:46:01.852Z,7.00
2022-08-11T09:51:06.208Z,6.50
2022-08-11T09:56:35.688Z,6.50
2022-08-11T10:01:43.921Z,7.25
2022-08-11T10:07:04.847Z,6.50
2022-08-11T10:12:12.084Z,7.00
2022-08-11T10:17:17.101Z,6.50
2022-08-11T10:22:37.799Z,6.25
2022-08-11T10:28:32.973Z,6.75
2022-08-11T10:33:47.600Z,6.00
2022-08-11T10:39:02.399Z,7.00
2022-08-11T10:44:09.065Z,6.25
2022-08-11T10:49:12.349Z,6.00
2022-08-11T10:54:34.408Z,5.50
2022-08-11T10:59:39.242Z,6.50
2022-08-11T11:04:58.254Z,5.75
2022-08-11T11:10:05.018Z,6.50
2022-08-11T11:15:28.268Z,6.75
2022-08-11T11:20:38.625Z,6.25
2022-08-11T11:26:27.574Z,7.25
2022-08-11T11:31:46.942Z,6.75
2022-08-11T11:36:51.485Z,5.75
2022-08-11T11:41:56.507Z,6.00
2022-08-11T11:47:02.515Z,5.50
2022-08-11T11:52:07.756Z,6.00
2022-08-11T11:57:29.556Z,6.75
2022-08-11T12:02:34.461Z,6.75
2022-08-11T12:08:05.099Z,5.50
2022-08-11T12:13:34.863Z,5.75
2022-08-11T12:18:40.954Z,5.25
2022-08-11T12:24:04.722Z,4.75
2022-08-11T12:29:09.391Z,5.25
2022-08-11T12:34:15.253Z,5.50
2022-08-11T12:40:15.840Z,6.00
2022-08-11T12:45:29.673Z,7.00
2022-08-11T12:50:52.993Z,5.25
2022-08-11T12:56:15.615Z,4.75
2022-08-11T13:01:36.578Z,5.00
2022-08-11T13:06:42.482Z,4.75
2022-08-11T13:12:04.769Z,5.00
2022-08-11T13:17:40.249Z,5.00
2022-08-11T13:22:50.298Z,7.00
2022-08-11T13:27:59.650Z,5.25
2022-08-11T13:33:06.344Z,5.00
2022-08-11T13:38:18.476Z,4.50
2022-08-11T13:43:24.504Z,5.00
2022-08-11T13:48:28.262Z,4.25
2022-08-11T13:53:33.725Z,4.00
2022-08-11T13:58:40.026Z,4.75
2022-08-11T14:04:30.552Z,4.25
2022-08-11T14:09:11.588Z,4.00
2022-08-11T14:14:20.134Z,4.25
2022-08-11T14:19:26.255Z,4.50
2022-08-11T14:24:30.779Z,4.50
2022-08-11T14:29:48.850Z,4.75
2022-08-11T14:34:52.484Z,4.00
2022-08-11T14:40:02.823Z,4.00
2022-08-11T14:45:57.853Z,4.75
2022-08-11T14:50:58.341Z,3.75
2022-08-11T14:56:16.776Z,4.50
2022-08-11T15:01:37.470Z,4.00
2022-08-11T15:06:40.654Z,3.50
2022-08-11T15:12:02.784Z,3.00
2022-08-11T15:17:09.951Z,4.00
2022-08-11T15:22:30.220Z,3.25
2022-08-11T15:27:53.118Z,4.00
2022-08-11T15:33:14.991Z,3.50
2022-08-11T15:38:21.041Z,5.00
2022-08-11T15:43:48.216Z,3.75
2022-08-11T15:48:57.226Z,3.50
2022-08-11T15:54:08.957Z,3.00
2022-08-11T15:59:41.916Z,5.00
2022-08-11T16:04:48.204Z,3.25
2022-08-11T16:09:59.607Z,4.75
2022-08-11T16:15:25.169Z,3.75
2022-08-11T16:20:30.406Z,3.25
2022-08-11T16:27:04.998Z,3.25
2022-08-11T16:31:10.763Z,3.00
2022-08-11T16:36:34.417Z,3.50
2022-08-11T16:41:57.397Z,3.25
2022-08-11T16:47:03.566Z,3.50
2022-08-11T16:52:11.067Z,4.00
2022-08-11T16:57:35.819Z,3.00
2022-08-11T17:03:03.764Z,3.50
2022-08-11T17:08:26.549Z,5.00
2022-08-11T17:13:36.183Z,3.00
2022-08-11T17:18:46.634Z,3.50
2022-08-11T17:23:54.827Z,3.00
2022-08-11T17:29:00.428Z,3.25
2022-08-11T17:34:23.357Z,3.75
2022-08-11T17:39:30.576Z,3.75
2022-08-11T17:44:52.970Z,3.75
2022-08-11T17:50:09.190Z,3.00
2022-08-11T17:55:51.938Z,2.75
2022-08-11T18:00:58.432Z,2.75
2022-08-11T18:06:16.245Z,3.00
2022-08-11T18:12:11.240Z,3.00
2022-08-11T18:17:18.470Z,2.25
2022-08-11T18:22:43.202Z,1.50
2022-08-11T18:28:06.352Z,2.00
2022-08-11T18:39:11.494Z,2.75
2022-08-11T18:44:33.452Z,2.00
2022-08-11T18:50:03.965Z,2.75
2022-08-11T18:55:35.252Z,2.25
2022-08-11T19:00:57.350Z,3.00
2022-08-11T19:06:38.376Z,2.00
2022-08-11T19:12:04.728Z,3.00
2022-08-11T19:17:44.683Z,3.00
2022-08-11T19:23:07.874Z,3.00
2022-08-11T19:28:30.632Z,3.00
2022-08-11T19:34:02.776Z,2.50
2022-08-11T19:39:32.951Z,2.50
2022-08-11T19:44:55.316Z,2.25
2022-08-11T19:50:21.894Z,1.00
2022-08-11T19:55:46.397Z,3.00
2022-08-11T20:01:08.659Z,2.25
2022-08-11T20:06:31.311Z,2.75
2022-08-11T20:11:55.699Z,3.00
2022-08-11T20:17:18.511Z,3.00
2022-08-11T20:22:39.456Z,2.25
2022-08-11T20:28:03.215Z,2.00
2022-08-11T20:33:27.135Z,2.75
2022-08-11T20:38:49.823Z,2.75
2022-08-11T20:44:12.470Z,4.00
2022-08-11T20:49:50.399Z,2.75
2022-08-11T20:55:19.160Z,3.50
2022-08-11T21:00:47.473Z,3.75
2022-08-11T21:06:11.125Z,3.00
2022-08-11T21:11:33.612Z,2.00
2022-08-11T21:16:55.434Z,3.00
2022-08-11T21:22:21.321Z,3.00
2022-08-11T21:27:51.952Z,3.00
2022-08-11T21:33:13.427Z,3.50
2022-08-11T21:38:36.897Z,2.00
2022-08-11T21:43:59.215Z,3.00
2022-08-11T21:49:20.932Z,3.00
2022-08-11T21:54:43.808Z,2.00
2022-08-11T22:00:10.981Z,2.75
2022-08-11T22:05:34.754Z,2.25
2022-08-11T22:10:57.263Z,3.00
2022-08-11T22:16:18.997Z,2.25
2022-08-11T22:22:02.691Z,2.50
2022-08-11T22:27:23.616Z,2.00
2022-08-11T22:32:45.172Z,3.50
2022-08-11T22:38:06.504Z,3.00
2022-08-11T22:43:28.569Z,3.00
2022-08-11T22:48:50.272Z,3.25
2022-08-11T22:54:13.713Z,3.00
2022-08-11T22:59:37.555Z,3.25
2022-08-11T23:04:59.070Z,2.75
2022-08-11T23:10:19.799Z,2.75
2022-08-11T23:15:42.545Z,2.50
2022-08-11T23:21:04.913Z,4.00
2022-08-11T23:26:26.005Z,3.00
2022-08-11T23:31:52.914Z,3.40
2022-08-11T23:37:13.867Z,3.00
2022-08-11T23:42:36.034Z,3.00
2022-08-11T23:48:00.384Z,3.75
2022-08-11T23:53:21.414Z,3.50
2022-08-11T23:58:42.012Z,4.00
